createdAt,value
2017-07-24T00:00:01.262Z,0
2017-07-24T00:01:11.233Z,0
2017-07-24T00:02:21.774Z,0
2017-07-24T00:03:31.740Z,0
2017-07-24T00:04:42.004Z,0
2017-07-24T00:05:51.968Z,0
2017-07-24T00:07:01.936Z,0
2017-07-24T00:08:12.476Z,0
2017-07-24T00:09:22.759Z,0
2017-07-24T00:10:33.046Z,0
2017-07-24T00:11:43.331Z,0
2017-07-24T00:12:53.607Z,0
2017-07-24T00:14:04.126Z,0
2017-07-24T00:15:14.404Z,0
2017-07-24T00:16:24.686Z,0
2017-07-24T00:17:34.956Z,0
2017-07-24T00:18:45.232Z,0
2017-07-24T00:19:55.763Z,0
2017-07-24T00:21:06.041Z,0
2017-07-24T00:22:16.314Z,0
2017-07-24T00:23:26.601Z,0
2017-07-24T00:24:36.893Z,0
2017-07-24T00:25:47.658Z,0
2017-07-24T00:26:57.942Z,0
2017-07-24T00:28:07.622Z,0
2017-07-24T00:29:17.907Z,0
2017-07-24T00:30:27.871Z,0
2017-07-24T00:31:38.405Z,0
2017-07-24T00:32:48.707Z,0
2017-07-24T00:33:58.986Z,0
2017-07-24T00:35:09.328Z,0
2017-07-24T00:36:19.306Z,0
2017-07-24T00:37:29.825Z,0
2017-07-24T00:38:39.801Z,0
2017-07-24T00:39:49.774Z,0
2017-07-24T00:41:00.063Z,0
2017-07-24T00:42:10.352Z,0
2017-07-24T00:43:20.563Z,0
2017-07-24T00:44:30.545Z,0
2017-07-24T00:45:40.826Z,0
2017-07-24T00:46:50.792Z,0
2017-07-24T00:48:00.768Z,0
2017-07-24T00:49:11.003Z,0
2017-07-24T00:50:20.968Z,0
2017-07-24T00:51:31.256Z,0
2017-07-24T00:52:41.232Z,0
2017-07-24T00:53:51.195Z,0
2017-07-24T00:55:01.734Z,0
2017-07-24T00:56:12.015Z,0
2017-07-24T00:57:22.283Z,0
2017-07-24T00:58:32.562Z,0
2017-07-24T00:59:42.841Z,0
2017-07-24T01:00:52.743Z,0
2017-07-24T01:02:02.717Z,0
2017-07-24T01:03:12.687Z,0
2017-07-24T01:04:22.659Z,0
2017-07-24T01:05:32.635Z,0
2017-07-24T01:06:43.223Z,0
2017-07-24T01:07:53.497Z,0
2017-07-24T01:09:03.778Z,0
2017-07-24T01:10:13.747Z,0
2017-07-24T01:11:24.028Z,0
2017-07-24T01:12:34.244Z,0
2017-07-24T01:13:44.515Z,0
2017-07-24T01:14:54.783Z,0
2017-07-24T01:16:05.062Z,0
2017-07-24T01:17:15.331Z,0
2017-07-24T01:18:25.860Z,0
2017-07-24T01:19:36.130Z,0
2017-07-24T01:20:46.415Z,0
2017-07-24T01:21:56.703Z,0
2017-07-24T01:23:06.983Z,0
2017-07-24T01:24:17.228Z,0
2017-07-24T01:25:27.179Z,0
2017-07-24T01:26:37.445Z,0
2017-07-24T01:27:47.420Z,0
2017-07-24T01:28:57.692Z,0
2017-07-24T01:30:08.271Z,0
2017-07-24T01:31:18.575Z,0
2017-07-24T01:32:28.543Z,0
2017-07-24T01:33:38.816Z,0
2017-07-24T01:34:49.110Z,0
2017-07-24T01:35:59.328Z,0
2017-07-24T01:37:09.601Z,0
2017-07-24T01:38:19.880Z,0
2017-07-24T01:39:29.850Z,0
2017-07-24T01:40:40.128Z,0
2017-07-24T01:41:50.347Z,0
2017-07-24T01:43:00.338Z,0
2017-07-24T01:44:10.621Z,0
2017-07-24T01:45:20.588Z,0
2017-07-24T01:46:30.550Z,0
2017-07-24T01:47:41.096Z,0
2017-07-24T01:48:51.373Z,0
2017-07-24T01:50:01.642Z,0
2017-07-24T01:51:11.921Z,0
2017-07-24T01:52:22.210Z,0
2017-07-24T01:53:32.467Z,0
2017-07-24T01:54:42.745Z,0
2017-07-24T01:55:53.019Z,0
2017-07-24T01:57:03.286Z,0
2017-07-24T01:58:13.541Z,0
2017-07-24T01:59:23.771Z,0
2017-07-24T02:00:33.729Z,0
2017-07-24T02:01:44.000Z,0
2017-07-24T02:02:54.281Z,0
2017-07-24T02:04:04.228Z,0
2017-07-24T02:05:14.448Z,0
2017-07-24T02:06:24.411Z,0
2017-07-24T02:07:34.685Z,0
2017-07-24T02:08:44.978Z,0
2017-07-24T02:09:55.259Z,0
2017-07-24T02:11:05.521Z,0
2017-07-24T02:12:15.804Z,0
2017-07-24T02:13:26.082Z,0
2017-07-24T02:14:36.362Z,0
2017-07-24T02:15:46.320Z,0
2017-07-24T02:16:56.537Z,0
2017-07-24T02:18:06.827Z,0
2017-07-24T02:19:17.103Z,0
2017-07-24T02:20:27.382Z,0
2017-07-24T02:21:37.353Z,0
2017-07-24T02:22:47.881Z,0
2017-07-24T02:23:58.162Z,0
2017-07-24T02:25:08.440Z,0
2017-07-24T02:26:18.422Z,0
2017-07-24T02:27:28.703Z,0
2017-07-24T02:28:39.223Z,0
2017-07-24T02:29:49.196Z,0
2017-07-24T02:30:59.492Z,0
2017-07-24T02:32:09.482Z,0
2017-07-24T02:33:19.754Z,0
2017-07-24T02:34:30.298Z,0
2017-07-24T02:35:40.262Z,0
2017-07-24T02:36:50.216Z,0
2017-07-24T02:38:00.496Z,0
2017-07-24T02:39:10.788Z,0
2017-07-24T02:40:21.003Z,0
2017-07-24T02:41:31.296Z,0
2017-07-24T02:42:41.580Z,0
2017-07-24T02:43:51.857Z,0
2017-07-24T02:45:01.500Z,0
2017-07-24T02:46:12.033Z,0
2017-07-24T02:47:21.988Z,0
2017-07-24T02:48:31.964Z,0
2017-07-24T02:49:41.924Z,0
2017-07-24T02:50:52.543Z,0
2017-07-24T02:52:03.081Z,0
2017-07-24T02:53:13.351Z,0
2017-07-24T02:54:23.624Z,0
2017-07-24T02:55:33.597Z,0
2017-07-24T02:56:43.246Z,0
2017-07-24T02:57:53.457Z,0
2017-07-24T02:59:03.740Z,0
2017-07-24T03:00:14.033Z,0
2017-07-24T03:01:24.313Z,0
2017-07-24T03:02:34.591Z,0
2017-07-24T03:03:45.117Z,5
2017-07-24T03:04:55.415Z,5
2017-07-24T03:06:05.369Z,5
2017-07-24T03:07:15.661Z,5
2017-07-24T03:08:25.948Z,5
2017-07-24T03:09:36.463Z,5
2017-07-24T03:10:46.738Z,10
2017-07-24T03:11:57.021Z,10
2017-07-24T03:13:06.682Z,10
2017-07-24T03:14:16.957Z,10
2017-07-24T03:15:27.477Z,15
2017-07-24T03:16:37.771Z,15
2017-07-24T03:17:48.048Z,15
2017-07-24T03:18:58.021Z,20
2017-07-24T03:20:08.300Z,20
2017-07-24T03:21:18.206Z,20
2017-07-24T03:22:28.496Z,25
2017-07-24T03:23:38.784Z,25
2017-07-24T03:24:48.444Z,25
2017-07-24T03:25:58.722Z,30
2017-07-24T03:27:09.258Z,30
2017-07-24T03:28:19.527Z,35
2017-07-24T03:29:29.497Z,35
2017-07-24T03:30:39.794Z,35
2017-07-24T03:31:49.765Z,40
2017-07-24T03:33:00.302Z,40
2017-07-24T03:34:10.273Z,45
2017-07-24T03:35:20.543Z,45
2017-07-24T03:36:30.525Z,50
2017-07-24T03:37:40.797Z,50
2017-07-24T03:38:51.329Z,55
2017-07-24T03:40:01.300Z,55
2017-07-24T03:41:11.269Z,60
2017-07-24T03:42:21.539Z,60
2017-07-24T03:43:32.475Z,65
2017-07-24T03:44:43.022Z,70
2017-07-24T03:45:53.709Z,70
2017-07-24T03:47:03.985Z,75
2017-07-24T03:48:14.266Z,80
2017-07-24T03:49:24.531Z,80
2017-07-24T03:50:34.763Z,85
2017-07-24T03:51:45.042Z,90
2017-07-24T03:52:54.701Z,95
2017-07-24T03:54:04.346Z,100
2017-07-24T03:55:14.616Z,105
2017-07-24T03:56:24.832Z,105
2017-07-24T03:57:35.094Z,105
2017-07-24T03:58:45.061Z,105
2017-07-24T03:59:55.030Z,110
2017-07-24T04:01:05.320Z,110
2017-07-24T04:02:15.841Z,115
2017-07-24T04:03:25.826Z,115
2017-07-24T04:04:36.097Z,115
2017-07-24T04:05:45.763Z,120
2017-07-24T04:06:55.434Z,125
2017-07-24T04:08:05.969Z,130
2017-07-24T04:09:15.965Z,130
2017-07-24T04:10:25.969Z,135
2017-07-24T04:11:35.929Z,135
2017-07-24T04:12:46.190Z,140
2017-07-24T04:13:56.714Z,145
2017-07-24T04:15:07.054Z,150
2017-07-24T04:16:17.337Z,155
2017-07-24T04:17:27.619Z,160
2017-07-24T04:18:37.574Z,165
2017-07-24T04:19:47.470Z,170
2017-07-24T04:20:57.748Z,175
2017-07-24T04:22:07.404Z,180
2017-07-24T04:23:17.688Z,190
2017-07-24T04:24:27.661Z,195
2017-07-24T04:25:38.213Z,205
2017-07-24T04:26:48.469Z,210
2017-07-24T04:27:58.434Z,210
2017-07-24T04:29:08.408Z,215
2017-07-24T04:30:18.678Z,220
2017-07-24T04:31:28.883Z,220
2017-07-24T04:32:39.179Z,220
2017-07-24T04:33:49.153Z,220
2017-07-24T04:34:59.456Z,220
2017-07-24T04:36:09.742Z,220
2017-07-24T04:37:20.289Z,225
2017-07-24T04:38:30.566Z,230
2017-07-24T04:39:40.859Z,230
2017-07-24T04:40:50.818Z,230
2017-07-24T04:42:01.097Z,240
2017-07-24T04:43:11.648Z,245
2017-07-24T04:44:21.923Z,255
2017-07-24T04:45:32.198Z,255
2017-07-24T04:46:42.471Z,260
2017-07-24T04:47:52.127Z,260
2017-07-24T04:49:02.651Z,260
2017-07-24T04:50:12.316Z,260
2017-07-24T04:51:22.285Z,260
2017-07-24T04:52:31.951Z,265
2017-07-24T04:53:42.225Z,260
2017-07-24T04:54:52.754Z,260
2017-07-24T04:56:03.026Z,260
2017-07-24T04:57:13.295Z,265
2017-07-24T04:58:23.582Z,260
2017-07-24T04:59:33.546Z,255
2017-07-24T05:00:44.082Z,250
2017-07-24T05:01:54.370Z,255
2017-07-24T05:03:04.679Z,260
2017-07-24T05:04:14.967Z,260
2017-07-24T05:05:25.259Z,265
2017-07-24T05:06:35.790Z,265
2017-07-24T05:07:45.763Z,270
2017-07-24T05:08:55.947Z,270
2017-07-24T05:10:06.233Z,275
2017-07-24T05:11:16.529Z,280
2017-07-24T05:12:26.747Z,290
2017-07-24T05:13:37.028Z,295
2017-07-24T05:14:47.318Z,295
2017-07-24T05:15:57.612Z,300
2017-07-24T05:17:07.589Z,305
2017-07-24T05:18:18.104Z,315
2017-07-24T05:19:28.061Z,310
2017-07-24T05:20:38.342Z,305
2017-07-24T05:21:48.623Z,305
2017-07-24T05:22:58.900Z,305
2017-07-24T05:24:09.450Z,305
2017-07-24T05:25:19.730Z,305
2017-07-24T05:26:29.993Z,305
2017-07-24T05:27:40.268Z,315
2017-07-24T05:28:50.558Z,315
2017-07-24T05:30:00.772Z,315
2017-07-24T05:31:11.051Z,310
2017-07-24T05:32:21.017Z,315
2017-07-24T05:33:31.296Z,320
2017-07-24T05:34:41.259Z,320
2017-07-24T05:35:51.850Z,325
2017-07-24T05:37:02.139Z,330
2017-07-24T05:38:12.665Z,330
2017-07-24T05:39:22.954Z,325
2017-07-24T05:40:32.599Z,325
2017-07-24T05:41:43.160Z,325
2017-07-24T05:42:53.139Z,330
2017-07-24T05:44:03.114Z,330
2017-07-24T05:45:13.386Z,330
2017-07-24T05:46:23.666Z,335
2017-07-24T05:47:34.200Z,335
2017-07-24T05:48:44.178Z,340
2017-07-24T05:49:54.156Z,345
2017-07-24T05:51:03.820Z,350
2017-07-24T05:52:13.803Z,350
2017-07-24T05:53:24.395Z,355
2017-07-24T05:54:34.673Z,360
2017-07-24T05:55:44.652Z,355
2017-07-24T05:56:54.625Z,360
2017-07-24T05:58:04.896Z,360
2017-07-24T05:59:15.114Z,365
2017-07-24T06:00:25.393Z,370
2017-07-24T06:01:35.690Z,380
2017-07-24T06:02:45.967Z,390
2017-07-24T06:03:56.243Z,400
2017-07-24T06:05:06.451Z,405
2017-07-24T06:06:16.423Z,420
2017-07-24T06:07:26.714Z,430
2017-07-24T06:08:36.997Z,435
2017-07-24T06:09:46.973Z,440
2017-07-24T06:10:57.507Z,445
2017-07-24T06:12:07.797Z,455
2017-07-24T06:13:17.778Z,460
2017-07-24T06:14:28.064Z,460
2017-07-24T06:15:37.729Z,465
2017-07-24T06:16:48.280Z,465
2017-07-24T06:17:58.570Z,470
2017-07-24T06:19:08.848Z,475
2017-07-24T06:20:18.508Z,480
2017-07-24T06:21:28.793Z,485
2017-07-24T06:22:39.022Z,490
2017-07-24T06:23:49.311Z,495
2017-07-24T06:24:59.310Z,500
2017-07-24T06:26:08.980Z,505
2017-07-24T06:27:18.949Z,510
2017-07-24T06:28:29.483Z,515
2017-07-24T06:29:39.796Z,515
2017-07-24T06:30:49.770Z,520
2017-07-24T06:32:00.051Z,520
2017-07-24T06:33:10.030Z,520
2017-07-24T06:34:20.571Z,525
2017-07-24T06:35:30.559Z,525
2017-07-24T06:36:40.857Z,535
2017-07-24T06:37:51.125Z,535
2017-07-24T06:39:01.406Z,540
2017-07-24T06:40:11.788Z,540
2017-07-24T06:41:22.070Z,555
2017-07-24T06:42:32.345Z,555
2017-07-24T06:43:42.322Z,565
2017-07-24T06:44:51.984Z,560
2017-07-24T06:46:02.511Z,555
2017-07-24T06:47:12.492Z,545
2017-07-24T06:48:22.150Z,540
2017-07-24T06:49:32.120Z,540
2017-07-24T06:50:42.439Z,540
2017-07-24T06:51:52.979Z,545
2017-07-24T06:53:02.948Z,545
2017-07-24T06:54:13.241Z,545
2017-07-24T06:55:23.554Z,545
2017-07-24T06:56:33.839Z,550
2017-07-24T06:57:44.399Z,550
2017-07-24T06:58:54.396Z,540
2017-07-24T07:00:04.366Z,545
2017-07-24T07:01:14.642Z,555
2017-07-24T07:02:24.920Z,560
2017-07-24T07:03:35.447Z,555
2017-07-24T07:04:45.738Z,560
2017-07-24T07:05:56.020Z,555
2017-07-24T07:07:06.321Z,560
2017-07-24T07:08:16.007Z,550
2017-07-24T07:09:26.238Z,555
2017-07-24T07:10:36.530Z,555
2017-07-24T07:11:46.806Z,560
2017-07-24T07:12:56.775Z,560
2017-07-24T07:14:07.064Z,570
2017-07-24T07:15:17.595Z,570
2017-07-24T07:16:27.574Z,565
2017-07-24T07:17:37.849Z,565
2017-07-24T07:18:48.141Z,560
2017-07-24T07:19:57.805Z,565
2017-07-24T07:21:08.349Z,565
2017-07-24T07:22:18.701Z,565
2017-07-24T07:23:28.974Z,565
2017-07-24T07:24:38.635Z,555
2017-07-24T07:25:48.601Z,550
2017-07-24T07:26:58.814Z,550
2017-07-24T07:28:08.496Z,545
2017-07-24T07:29:18.459Z,540
2017-07-24T07:30:28.736Z,535
2017-07-24T07:31:39.030Z,520
2017-07-24T07:32:49.575Z,520
2017-07-24T07:33:59.564Z,515
2017-07-24T07:35:09.555Z,505
2017-07-24T07:36:19.857Z,500
2017-07-24T07:37:30.141Z,500
2017-07-24T07:38:40.701Z,500
2017-07-24T07:39:50.668Z,500
2017-07-24T07:41:00.662Z,500
2017-07-24T07:42:10.319Z,500
2017-07-24T07:43:20.591Z,500
2017-07-24T07:44:31.134Z,500
2017-07-24T07:45:41.416Z,500
2017-07-24T07:46:51.390Z,500
2017-07-24T07:48:01.683Z,495
2017-07-24T07:49:11.952Z,495
2017-07-24T07:50:21.869Z,495
2017-07-24T07:51:32.179Z,490
2017-07-24T07:52:42.148Z,485
2017-07-24T07:53:52.446Z,485
2017-07-24T07:55:02.736Z,485
2017-07-24T07:56:13.263Z,470
2017-07-24T07:57:23.553Z,480
2017-07-24T07:58:33.843Z,480
2017-07-24T07:59:43.497Z,480
2017-07-24T08:00:53.783Z,480
2017-07-24T08:02:04.009Z,475
2017-07-24T08:03:14.299Z,470
2017-07-24T08:04:24.581Z,470
2017-07-24T08:05:34.568Z,460
2017-07-24T08:06:44.870Z,460
2017-07-24T08:07:55.113Z,455
2017-07-24T08:09:05.080Z,455
2017-07-24T08:10:15.061Z,460
2017-07-24T08:11:25.367Z,460
2017-07-24T08:12:35.660Z,465
2017-07-24T08:13:46.201Z,455
2017-07-24T08:14:56.503Z,455
2017-07-24T08:16:06.784Z,455
2017-07-24T08:17:17.112Z,455
2017-07-24T08:18:27.391Z,460
2017-07-24T08:19:37.973Z,460
2017-07-24T08:20:47.947Z,455
2017-07-24T08:21:58.236Z,450
2017-07-24T08:23:08.509Z,450
2017-07-24T08:24:18.506Z,450
2017-07-24T08:25:29.084Z,445
2017-07-24T08:26:39.374Z,445
2017-07-24T08:27:49.361Z,445
2017-07-24T08:28:59.702Z,455
2017-07-24T08:30:09.360Z,460
2017-07-24T08:31:19.906Z,470
2017-07-24T08:32:30.178Z,475
2017-07-24T08:33:40.182Z,485
2017-07-24T08:34:50.143Z,490
2017-07-24T08:36:00.438Z,500
2017-07-24T08:37:10.998Z,735
2017-07-24T08:38:20.968Z,1205
2017-07-24T08:39:31.259Z,1270
2017-07-24T08:40:41.239Z,1325
2017-07-24T08:41:51.545Z,1215
2017-07-24T08:43:02.075Z,1295
2017-07-24T08:44:12.363Z,1370
2017-07-24T08:45:22.665Z,1220
2017-07-24T08:46:32.969Z,1345
2017-07-24T08:47:43.487Z,1350
2017-07-24T08:48:53.722Z,1220
2017-07-24T08:50:04.002Z,1185
2017-07-24T08:51:14.282Z,1350
2017-07-24T08:52:24.559Z,1340
2017-07-24T08:53:34.873Z,1385
2017-07-24T08:54:45.110Z,1425
2017-07-24T08:55:55.106Z,1385
2017-07-24T08:57:05.398Z,1310
2017-07-24T08:58:15.689Z,1325
2017-07-24T08:59:26.018Z,1400
2017-07-24T09:00:36.583Z,965
2017-07-24T09:01:46.884Z,725
2017-07-24T09:02:56.976Z,1495
2017-07-24T09:04:07.265Z,1395
2017-07-24T09:05:17.253Z,760
2017-07-24T09:06:27.789Z,1585
2017-07-24T09:07:37.462Z,1625
2017-07-24T09:08:47.773Z,1585
2017-07-24T09:09:58.073Z,1660
2017-07-24T09:11:08.372Z,1720
2017-07-24T09:12:18.942Z,1655
2017-07-24T09:13:28.938Z,1745
2017-07-24T09:14:38.933Z,1780
2017-07-24T09:15:49.243Z,1925
2017-07-24T09:16:59.545Z,2030
2017-07-24T09:18:10.108Z,1900
2017-07-24T09:19:20.394Z,1880
2017-07-24T09:20:30.374Z,1920
2017-07-24T09:21:40.368Z,2000
2017-07-24T09:22:50.344Z,1975
2017-07-24T09:24:00.956Z,1830
2017-07-24T09:25:11.240Z,1635
2017-07-24T09:26:21.538Z,1600
2017-07-24T09:27:31.546Z,1875
2017-07-24T09:28:41.865Z,1730
2017-07-24T09:29:52.106Z,1450
2017-07-24T09:31:02.439Z,1205
2017-07-24T09:32:12.762Z,1170
2017-07-24T09:33:22.767Z,1590
2017-07-24T09:34:33.065Z,1665
2017-07-24T09:35:43.604Z,1545
2017-07-24T09:36:53.898Z,1315
2017-07-24T09:38:04.230Z,1370
2017-07-24T09:39:14.528Z,1465
2017-07-24T09:40:24.857Z,1545
2017-07-24T09:41:35.117Z,1550
2017-07-24T09:42:45.437Z,1315
2017-07-24T09:43:55.448Z,1280
2017-07-24T09:45:05.156Z,1320
2017-07-24T09:46:15.500Z,1285
2017-07-24T09:47:26.038Z,1255
2017-07-24T09:48:36.354Z,1240
2017-07-24T09:49:46.338Z,1230
2017-07-24T09:50:56.621Z,1215
2017-07-24T09:52:06.596Z,1240
2017-07-24T09:53:16.837Z,1230
2017-07-24T09:54:27.136Z,1275
2017-07-24T09:55:36.803Z,1280
2017-07-24T09:56:47.095Z,1285
2017-07-24T09:57:57.087Z,1290
2017-07-24T09:59:07.653Z,1275
2017-07-24T10:00:17.945Z,1345
2017-07-24T10:01:28.237Z,1365
2017-07-24T10:02:37.600Z,1585
2017-07-24T10:03:47.889Z,1715
2017-07-24T10:04:58.423Z,1955
2017-07-24T10:06:08.729Z,1760
2017-07-24T10:07:19.051Z,1495
2017-07-24T10:08:29.055Z,1680
2017-07-24T10:09:39.049Z,2010
2017-07-24T10:10:49.809Z,2000
2017-07-24T10:12:00.108Z,2015
2017-07-24T10:13:10.406Z,2030
2017-07-24T10:14:20.093Z,2045
2017-07-24T10:15:30.379Z,2005
2017-07-24T10:16:40.611Z,2045
2017-07-24T10:17:50.900Z,1920
2017-07-24T10:19:01.190Z,1770
2017-07-24T10:20:11.498Z,1790
2017-07-24T10:21:21.466Z,1745
2017-07-24T10:22:31.405Z,1780
2017-07-24T10:23:41.694Z,1805
2017-07-24T10:24:51.968Z,1825
2017-07-24T10:26:02.305Z,1765
2017-07-24T10:27:12.586Z,1740
2017-07-24T10:28:23.124Z,1735
2017-07-24T10:29:33.124Z,1610
2017-07-24T10:30:43.104Z,1575
2017-07-24T10:31:53.400Z,1665
2017-07-24T10:33:03.697Z,1780
2017-07-24T10:34:13.946Z,1820
2017-07-24T10:35:23.932Z,1835
2017-07-24T10:36:33.906Z,1800
2017-07-24T10:37:44.218Z,1730
2017-07-24T10:38:54.529Z,1720
2017-07-24T10:40:04.757Z,1695
2017-07-24T10:41:15.055Z,1795
2017-07-24T10:42:25.373Z,1910
2017-07-24T10:43:35.666Z,2005
2017-07-24T10:44:45.657Z,2180
2017-07-24T10:45:56.270Z,2025
2017-07-24T10:47:05.932Z,1950
2017-07-24T10:48:16.222Z,1920
2017-07-24T10:49:26.543Z,1800
2017-07-24T10:50:36.862Z,1775
2017-07-24T10:51:46.809Z,1675
2017-07-24T10:52:57.092Z,1685
2017-07-24T10:54:07.378Z,1560
2017-07-24T10:55:17.350Z,1650
2017-07-24T10:56:27.638Z,1765
2017-07-24T10:57:38.187Z,1860
2017-07-24T10:58:48.465Z,1935
2017-07-24T10:59:58.434Z,1900
2017-07-24T11:01:08.761Z,2005
2017-07-24T11:02:18.684Z,2045
2017-07-24T11:03:28.901Z,2050
2017-07-24T11:04:38.893Z,2375
2017-07-24T11:05:48.867Z,2210
2017-07-24T11:06:59.171Z,2335
2017-07-24T11:08:09.171Z,2305
2017-07-24T11:09:19.701Z,2315
2017-07-24T11:10:29.992Z,2300
2017-07-24T11:11:39.964Z,2330
2017-07-24T11:12:49.954Z,2365
2017-07-24T11:13:59.944Z,2120
2017-07-24T11:15:10.510Z,2190
2017-07-24T11:16:20.493Z,2190
2017-07-24T11:17:30.467Z,2105
2017-07-24T11:18:40.772Z,2005
2017-07-24T11:19:51.080Z,1885
2017-07-24T11:21:01.631Z,1920
2017-07-24T11:22:11.917Z,1860
2017-07-24T11:23:22.217Z,1970
2017-07-24T11:24:32.526Z,1820
2017-07-24T11:25:42.833Z,1630
2017-07-24T11:26:53.361Z,1300
2017-07-24T11:28:03.640Z,1340
2017-07-24T11:29:13.945Z,1880
2017-07-24T11:30:23.670Z,1445
2017-07-24T11:31:33.651Z,1400
2017-07-24T11:32:44.197Z,1890
2017-07-24T11:33:54.172Z,1870
2017-07-24T11:35:04.153Z,1875
2017-07-24T11:36:14.468Z,2050
2017-07-24T11:37:24.760Z,2130
2017-07-24T11:38:35.301Z,1975
2017-07-24T11:39:45.610Z,1890
2017-07-24T11:40:55.598Z,1955
2017-07-24T11:42:05.586Z,1780
2017-07-24T11:43:15.542Z,1465
2017-07-24T11:44:26.095Z,1230
2017-07-24T11:45:36.375Z,1535
2017-07-24T11:46:46.672Z,1255
2017-07-24T11:47:56.659Z,1245
2017-07-24T11:49:06.630Z,1235
2017-07-24T11:50:16.871Z,1205
2017-07-24T11:51:27.172Z,1255
2017-07-24T11:52:37.481Z,1610
2017-07-24T11:53:47.762Z,1635
2017-07-24T11:54:58.042Z,1635
2017-07-24T11:56:08.578Z,1645
2017-07-24T11:57:18.908Z,1675
2017-07-24T11:58:29.217Z,1600
2017-07-24T11:59:39.521Z,1655
2017-07-24T12:00:49.822Z,1745
2017-07-24T12:01:59.748Z,1635
2017-07-24T12:03:09.739Z,1690
2017-07-24T12:04:20.022Z,1380
2017-07-24T12:05:30.307Z,1080
2017-07-24T12:06:40.599Z,995
2017-07-24T12:07:51.131Z,960
2017-07-24T12:09:01.400Z,925
2017-07-24T12:10:11.387Z,890
2017-07-24T12:11:21.689Z,880
2017-07-24T12:12:31.973Z,890
2017-07-24T12:13:42.195Z,915
2017-07-24T12:14:52.485Z,1095
2017-07-24T12:16:02.492Z,1115
2017-07-24T12:17:12.470Z,1130
2017-07-24T12:18:22.755Z,1440
2017-07-24T12:19:33.035Z,1485
2017-07-24T12:20:43.010Z,1545
2017-07-24T12:21:53.320Z,1565
2017-07-24T12:23:03.618Z,1570
2017-07-24T12:24:13.929Z,1575
2017-07-24T12:25:24.168Z,1545
2017-07-24T12:26:34.480Z,1565
2017-07-24T12:27:44.480Z,1520
2017-07-24T12:28:54.462Z,1520
2017-07-24T12:30:04.769Z,1555
2017-07-24T12:31:14.705Z,1540
2017-07-24T12:32:24.387Z,1555
2017-07-24T12:33:34.676Z,1640
2017-07-24T12:34:44.970Z,1750
2017-07-24T12:35:55.263Z,1745
2017-07-24T12:37:05.815Z,1750
2017-07-24T12:38:15.811Z,1700
2017-07-24T12:39:25.783Z,1415
2017-07-24T12:40:36.102Z,1595
2017-07-24T12:41:46.074Z,1790
2017-07-24T12:42:56.308Z,1950
2017-07-24T12:44:06.601Z,1595
2017-07-24T12:45:16.905Z,1460
2017-07-24T12:46:26.893Z,1945
2017-07-24T12:47:37.182Z,1780
2017-07-24T12:48:47.712Z,1740
2017-07-24T12:49:58.015Z,1920
2017-07-24T12:51:07.696Z,2005
2017-07-24T12:52:17.379Z,2010
2017-07-24T12:53:27.685Z,1845
2017-07-24T12:54:38.236Z,1800
2017-07-24T12:55:48.534Z,1780
2017-07-24T12:56:58.517Z,1495
2017-07-24T12:58:08.812Z,1640
2017-07-24T12:59:18.483Z,1840
2017-07-24T13:00:28.700Z,1640
2017-07-24T13:01:38.982Z,1725
2017-07-24T13:02:49.296Z,1815
2017-07-24T13:03:59.278Z,1640
2017-07-24T13:05:09.586Z,1590
2017-07-24T13:06:20.151Z,1925
2017-07-24T13:07:30.142Z,1490
2017-07-24T13:08:40.437Z,1365
2017-07-24T13:09:50.408Z,1370
2017-07-24T13:11:00.718Z,1380
2017-07-24T13:12:11.262Z,1440
2017-07-24T13:13:21.560Z,1470
2017-07-24T13:14:31.881Z,1430
2017-07-24T13:15:42.173Z,1425
2017-07-24T13:16:52.466Z,1690
2017-07-24T13:18:02.688Z,1700
2017-07-24T13:19:13.000Z,1865
2017-07-24T13:20:23.289Z,1680
2017-07-24T13:21:33.591Z,1515
2017-07-24T13:22:43.869Z,1520
2017-07-24T13:23:54.416Z,1475
2017-07-24T13:25:04.446Z,1470
2017-07-24T13:26:14.725Z,1670
2017-07-24T13:27:24.701Z,2125
2017-07-24T13:28:34.993Z,2045
2017-07-24T13:29:45.224Z,1680
2017-07-24T13:30:55.510Z,1420
2017-07-24T13:32:05.801Z,1350
2017-07-24T13:33:16.102Z,1385
2017-07-24T13:34:26.099Z,1450
2017-07-24T13:35:36.324Z,1600
2017-07-24T13:36:46.303Z,1665
2017-07-24T13:37:56.601Z,1750
2017-07-24T13:39:06.590Z,2250
2017-07-24T13:40:16.652Z,1655
2017-07-24T13:41:27.189Z,1830
2017-07-24T13:42:37.175Z,1995
2017-07-24T13:43:47.464Z,2485
2017-07-24T13:44:57.761Z,2550
2017-07-24T13:46:08.062Z,2445
2017-07-24T13:47:18.603Z,2190
2017-07-24T13:48:28.901Z,2275
2017-07-24T13:49:39.247Z,2155
2017-07-24T13:50:49.533Z,1940
2017-07-24T13:51:59.208Z,1970
2017-07-24T13:53:09.433Z,1895
2017-07-24T13:54:19.717Z,1530
2017-07-24T13:55:30.022Z,1265
2017-07-24T13:56:40.011Z,1250
2017-07-24T13:57:50.312Z,1245
2017-07-24T13:59:00.550Z,1245
2017-07-24T14:00:10.518Z,1230
2017-07-24T14:01:20.824Z,1320
2017-07-24T14:02:31.109Z,1515
2017-07-24T14:03:41.390Z,2360
2017-07-24T14:04:51.925Z,2115
2017-07-24T14:06:02.227Z,1470
2017-07-24T14:07:12.206Z,1350
2017-07-24T14:08:21.866Z,1345
2017-07-24T14:09:31.847Z,1610
2017-07-24T14:10:42.380Z,2000
2017-07-24T14:11:52.678Z,2190
2017-07-24T14:13:02.953Z,1710
2017-07-24T14:14:12.941Z,1525
2017-07-24T14:15:22.908Z,1430
2017-07-24T14:16:32.846Z,1565
2017-07-24T14:17:42.540Z,1600
2017-07-24T14:18:52.830Z,1450
2017-07-24T14:20:03.127Z,1375
2017-07-24T14:21:13.106Z,1155
2017-07-24T14:22:23.348Z,1200
2017-07-24T14:23:33.035Z,1085
2017-07-24T14:24:43.005Z,1145
2017-07-24T14:25:52.986Z,1155
2017-07-24T14:27:02.664Z,1130
2017-07-24T14:28:13.196Z,1085
2017-07-24T14:29:23.192Z,1015
2017-07-24T14:30:33.501Z,1065
2017-07-24T14:31:43.794Z,1010
2017-07-24T14:32:54.082Z,1150
2017-07-24T14:34:04.630Z,920
2017-07-24T14:35:14.303Z,815
2017-07-24T14:36:24.599Z,740
2017-07-24T14:37:34.877Z,680
2017-07-24T14:38:44.859Z,655
2017-07-24T14:39:55.405Z,635
2017-07-24T14:41:05.692Z,630
2017-07-24T14:42:15.974Z,630
2017-07-24T14:43:25.974Z,630
2017-07-24T14:44:36.302Z,640
2017-07-24T14:45:46.272Z,640
2017-07-24T14:46:56.243Z,645
2017-07-24T14:48:06.569Z,670
2017-07-24T14:49:16.896Z,680
2017-07-24T14:50:26.868Z,725
2017-07-24T14:51:37.414Z,840
2017-07-24T14:52:47.741Z,845
2017-07-24T14:53:58.044Z,955
2017-07-24T14:55:08.324Z,960
2017-07-24T14:56:18.318Z,870
2017-07-24T14:57:28.581Z,795
2017-07-24T14:58:38.879Z,795
2017-07-24T14:59:49.168Z,780
2017-07-24T15:00:59.155Z,760
2017-07-24T15:02:09.150Z,790
2017-07-24T15:03:19.689Z,810
2017-07-24T15:04:29.966Z,840
2017-07-24T15:05:39.962Z,870
2017-07-24T15:06:49.955Z,890
2017-07-24T15:07:59.924Z,880
2017-07-24T15:09:10.497Z,870
2017-07-24T15:10:20.811Z,850
2017-07-24T15:11:30.807Z,860
2017-07-24T15:12:40.796Z,845
2017-07-24T15:13:51.079Z,815
2017-07-24T15:15:01.610Z,795
2017-07-24T15:16:11.632Z,780
2017-07-24T15:17:21.620Z,755
2017-07-24T15:18:31.603Z,740
2017-07-24T15:19:41.896Z,720
2017-07-24T15:20:52.442Z,705
2017-07-24T15:22:02.745Z,690
2017-07-24T15:23:13.045Z,695
2017-07-24T15:24:23.320Z,705
2017-07-24T15:25:33.602Z,700
2017-07-24T15:26:44.158Z,690
2017-07-24T15:27:54.131Z,680
2017-07-24T15:29:04.428Z,680
2017-07-24T15:30:14.409Z,680
2017-07-24T15:31:24.396Z,680
2017-07-24T15:32:34.940Z,675
2017-07-24T15:33:44.917Z,675
2017-07-24T15:34:55.203Z,685
2017-07-24T15:36:05.172Z,630
2017-07-24T15:37:15.452Z,620
2017-07-24T15:38:25.694Z,605
2017-07-24T15:39:35.683Z,585
2017-07-24T15:40:45.356Z,570
2017-07-24T15:41:55.352Z,555
2017-07-24T15:43:05.327Z,535
2017-07-24T15:44:15.862Z,515
2017-07-24T15:45:26.173Z,495
2017-07-24T15:46:36.136Z,475
2017-07-24T15:47:46.417Z,455
2017-07-24T15:48:56.719Z,450
2017-07-24T15:50:06.949Z,440
2017-07-24T15:51:16.615Z,430
2017-07-24T15:52:26.615Z,425
2017-07-24T15:53:36.699Z,415
2017-07-24T15:54:46.986Z,415
2017-07-24T15:55:57.551Z,410
2017-07-24T15:57:07.822Z,400
2017-07-24T15:58:18.104Z,400
2017-07-24T15:59:28.103Z,395
2017-07-24T16:00:38.394Z,400
2017-07-24T16:01:48.939Z,390
2017-07-24T16:02:58.919Z,385
2017-07-24T16:04:08.584Z,385
2017-07-24T16:05:18.881Z,380
2017-07-24T16:06:28.868Z,370
2017-07-24T16:07:39.397Z,365
2017-07-24T16:08:49.691Z,360